createdAt,value
2018-08-10T00:00:18.403Z,3.50
2018-08-10T00:02:47.012Z,3.13
2018-08-10T00:05:15.564Z,3.60
2018-08-10T00:07:44.099Z,3.10
2018-08-10T00:10:13.972Z,2.90
2018-08-10T00:12:42.569Z,3.33
2018-08-10T00:15:12.365Z,3.10
2018-08-10T00:17:41.379Z,3.43
2018-08-10T00:20:15.483Z,3.10
2018-08-10T00:22:44.811Z,2.87
2018-08-10T00:25:15.794Z,2.63
2018-08-10T00:27:44.376Z,3.60
2018-08-10T00:30:14.878Z,2.60
2018-08-10T00:32:45.777Z,3.50
2018-08-10T00:35:14.422Z,3.70
2018-08-10T00:37:43.854Z,3.43
2018-08-10T00:40:15.632Z,2.93
2018-08-10T00:42:44.653Z,3.57
2018-08-10T00:45:14.236Z,3.27
2018-08-10T00:47:43.560Z,3.13
2018-08-10T00:50:13.367Z,3.23
2018-08-10T00:52:42.572Z,3.60
2018-08-10T00:55:12.802Z,3.80
2018-08-10T00:57:41.691Z,3.60
2018-08-10T01:00:13.635Z,3.77
2018-08-10T01:02:42.307Z,3.80
2018-08-10T01:05:11.351Z,3.47
2018-08-10T01:07:39.955Z,3.57
2018-08-10T01:10:12.331Z,3.90
2018-08-10T01:12:41.427Z,3.10
2018-08-10T01:15:12.884Z,4.33
2018-08-10T01:17:41.722Z,3.30
2018-08-10T01:20:17.600Z,2.77
2018-08-10T01:22:51.623Z,3.87
2018-08-10T01:25:21.424Z,3.67
2018-08-10T01:27:57.212Z,3.00
2018-08-10T01:30:27.300Z,2.83
2018-08-10T01:32:55.999Z,3.20
2018-08-10T01:35:25.196Z,2.97
2018-08-10T01:37:54.587Z,3.00
2018-08-10T01:40:23.179Z,3.20
2018-08-10T01:42:51.727Z,2.90
2018-08-10T01:45:20.342Z,3.07
2018-08-10T01:47:48.844Z,3.13
2018-08-10T01:50:17.403Z,2.87
2018-08-10T01:52:46.004Z,2.67
2018-08-10T01:55:14.561Z,2.60
2018-08-10T01:57:43.099Z,3.27
2018-08-10T02:00:11.963Z,2.77
2018-08-10T02:02:40.488Z,3.30
2018-08-10T02:05:12.331Z,2.30
2018-08-10T02:07:41.445Z,3.10
2018-08-10T02:10:13.733Z,2.77
2018-08-10T02:12:43.211Z,2.83
2018-08-10T02:15:14.272Z,2.97
2018-08-10T02:17:42.812Z,3.10
2018-08-10T02:20:13.280Z,2.50
2018-08-10T02:22:41.911Z,3.10
2018-08-10T02:25:12.195Z,2.63
2018-08-10T02:27:41.374Z,2.93
2018-08-10T02:30:11.936Z,2.60
2018-08-10T02:32:41.566Z,3.00
2018-08-10T02:35:10.148Z,2.63
2018-08-10T02:37:39.288Z,2.80
2018-08-10T02:40:13.468Z,2.07
2018-08-10T02:42:42.726Z,2.80
2018-08-10T02:45:11.415Z,2.50
2018-08-10T02:47:39.998Z,2.20
2018-08-10T02:50:08.610Z,2.50
2018-08-10T02:52:37.215Z,2.40
2018-08-10T02:55:07.230Z,2.97
2018-08-10T02:57:35.978Z,2.43
2018-08-10T03:00:07.144Z,2.47
2018-08-10T03:02:35.732Z,2.83
2018-08-10T03:05:05.378Z,2.70
2018-08-10T03:07:33.962Z,2.30
2018-08-10T03:10:02.492Z,2.17
2018-08-10T03:12:31.069Z,1.97
2018-08-10T03:14:59.591Z,2.57
2018-08-10T03:17:28.151Z,2.53
2018-08-10T03:19:56.687Z,2.97
2018-08-10T03:22:25.302Z,2.63
2018-08-10T03:24:53.900Z,2.50
2018-08-10T03:27:22.477Z,2.80
2018-08-10T03:29:50.997Z,2.20
2018-08-10T03:32:19.508Z,2.50
2018-08-10T03:34:48.118Z,2.50
2018-08-10T03:37:16.647Z,2.30
2018-08-10T03:39:45.183Z,1.87
2018-08-10T03:42:13.719Z,2.20
2018-08-10T03:44:42.288Z,2.10
2018-08-10T03:47:10.822Z,2.20
2018-08-10T03:49:39.398Z,2.00
2018-08-10T03:52:08.003Z,2.13
2018-08-10T03:54:36.545Z,1.90
2018-08-10T03:57:05.357Z,2.00
2018-08-10T03:59:33.894Z,2.33
2018-08-10T04:02:02.461Z,2.07
2018-08-10T04:04:31.025Z,2.43
2018-08-10T04:06:59.639Z,2.53
2018-08-10T04:09:28.171Z,2.63
2018-08-10T04:11:56.829Z,5.83
2018-08-10T04:14:25.387Z,3.33
2018-08-10T04:16:53.904Z,2.10
2018-08-10T04:19:22.462Z,2.67
2018-08-10T04:21:50.990Z,2.63
2018-08-10T04:24:19.564Z,2.20
2018-08-10T04:26:48.115Z,2.23
2018-08-10T04:29:16.670Z,2.20
2018-08-10T04:31:45.200Z,2.40
2018-08-10T04:34:13.835Z,2.30
2018-08-10T04:36:42.347Z,2.20
2018-08-10T04:39:13.068Z,2.27
2018-08-10T04:41:42.003Z,1.93
2018-08-10T04:44:10.692Z,2.20
2018-08-10T04:46:39.310Z,2.50
2018-08-10T04:49:08.554Z,2.47
2018-08-10T04:51:37.166Z,2.30
2018-08-10T04:54:05.835Z,2.37
2018-08-10T04:56:34.372Z,2.30
2018-08-10T04:59:02.987Z,2.33
2018-08-10T05:01:31.562Z,2.30
2018-08-10T05:04:00.166Z,3.17
2018-08-10T05:06:28.736Z,3.73
2018-08-10T05:08:57.264Z,5.27
2018-08-10T05:11:25.824Z,3.30
2018-08-10T05:13:54.415Z,3.53
2018-08-10T05:16:22.943Z,3.10
2018-08-10T05:18:51.496Z,2.50
2018-08-10T05:21:20.035Z,2.10
2018-08-10T05:23:48.560Z,2.00
2018-08-10T05:26:17.181Z,2.30
2018-08-10T05:28:46.453Z,1.87
2018-08-10T05:31:14.977Z,2.00
2018-08-10T05:33:43.498Z,2.40
2018-08-10T05:36:12.060Z,2.37
2018-08-10T05:38:41.344Z,2.90
2018-08-10T05:41:10.272Z,2.00
2018-08-10T05:43:40.520Z,2.10
2018-08-10T05:46:09.197Z,2.20
2018-08-10T05:48:38.519Z,1.93
2018-08-10T05:51:09.648Z,2.13
2018-08-10T05:53:39.454Z,2.33
2018-08-10T05:56:08.059Z,2.03
2018-08-10T05:58:36.622Z,2.00
2018-08-10T06:01:05.840Z,2.00
2018-08-10T06:03:34.456Z,1.70
2018-08-10T06:06:03.095Z,1.80
2018-08-10T06:08:31.624Z,1.87
2018-08-10T06:11:00.139Z,2.10
2018-08-10T06:13:28.691Z,1.97
2018-08-10T06:15:57.224Z,2.07
2018-08-10T06:18:25.728Z,1.40
2018-08-10T06:20:54.250Z,1.63
2018-08-10T06:23:22.796Z,1.73
2018-08-10T06:25:51.342Z,1.60
2018-08-10T06:28:19.914Z,1.77
2018-08-10T06:30:48.408Z,1.50
2018-08-10T06:33:16.945Z,2.20
2018-08-10T06:35:45.527Z,1.90
2018-08-10T06:38:14.063Z,2.10
2018-08-10T06:40:42.562Z,2.13
2018-08-10T06:43:11.104Z,1.70
2018-08-10T06:45:39.640Z,1.70
2018-08-10T06:48:08.192Z,1.47
2018-08-10T06:50:36.743Z,1.67
2018-08-10T06:53:05.300Z,1.37
2018-08-10T06:55:33.841Z,1.47
2018-08-10T06:58:02.326Z,1.27
2018-08-10T07:00:30.863Z,1.30
2018-08-10T07:02:59.358Z,1.07
2018-08-10T07:05:27.891Z,1.30
2018-08-10T07:07:56.499Z,1.10
2018-08-10T07:10:25.016Z,1.20
2018-08-10T07:12:53.582Z,1.10
2018-08-10T07:15:22.083Z,1.10
2018-08-10T07:17:50.611Z,1.57
2018-08-10T07:20:19.146Z,1.20
2018-08-10T07:22:47.743Z,1.30
2018-08-10T07:25:16.267Z,1.00
2018-08-10T07:27:44.978Z,1.30
2018-08-10T07:30:13.724Z,1.43
2018-08-10T07:32:42.213Z,1.37
2018-08-10T07:35:11.002Z,1.13
2018-08-10T07:37:40.525Z,1.20
2018-08-10T07:40:09.116Z,1.20
2018-08-10T07:42:37.640Z,0.93
2018-08-10T07:45:06.633Z,1.03
2018-08-10T07:47:35.159Z,1.30
2018-08-10T07:50:03.728Z,1.10
2018-08-10T07:52:32.233Z,1.10
2018-08-10T07:55:00.743Z,1.10
2018-08-10T07:57:29.298Z,1.03
2018-08-10T07:59:57.831Z,1.10
2018-08-10T08:02:26.345Z,1.10
2018-08-10T08:04:54.886Z,1.40
2018-08-10T08:07:23.436Z,1.00
2018-08-10T08:09:51.952Z,1.00
2018-08-10T08:12:20.475Z,1.10
2018-08-10T08:14:49.039Z,0.80
2018-08-10T08:17:17.551Z,0.80
2018-08-10T08:19:46.275Z,1.00
2018-08-10T08:22:19.109Z,1.00
2018-08-10T08:24:47.711Z,0.90
2018-08-10T08:27:17.394Z,0.80
2018-08-10T08:29:46.049Z,0.90
2018-08-10T08:32:14.595Z,0.90
2018-08-10T08:34:43.240Z,0.87
2018-08-10T08:37:11.961Z,1.07
2018-08-10T08:40:49.435Z,1.00
2018-08-10T08:43:32.090Z,0.97
2018-08-10T08:46:06.063Z,0.80
2018-08-10T08:48:39.024Z,0.90
2018-08-10T08:51:10.741Z,0.90
2018-08-10T08:53:39.346Z,1.10
2018-08-10T08:56:10.216Z,1.10
2018-08-10T08:58:39.374Z,0.80
2018-08-10T09:01:08.898Z,1.17
2018-08-10T09:04:50.453Z,0.90
2018-08-10T09:07:19.043Z,1.03
2018-08-10T09:09:47.527Z,1.00
2018-08-10T09:12:16.303Z,1.10
2018-08-10T09:15:20.692Z,1.07
2018-08-10T09:17:49.258Z,1.17
2018-08-10T09:20:17.879Z,1.17
2018-08-10T09:22:46.450Z,1.23
2018-08-10T09:25:16.864Z,1.07
2018-08-10T09:27:45.466Z,1.00
2018-08-10T09:30:16.225Z,1.03
2018-08-10T09:32:44.836Z,0.90
2018-08-10T09:35:13.939Z,1.03
2018-08-10T09:37:42.627Z,1.03
2018-08-10T09:40:14.164Z,1.00
2018-08-10T09:42:42.850Z,1.00
2018-08-10T09:45:12.602Z,1.10
2018-08-10T09:47:41.673Z,1.40
2018-08-10T09:50:11.502Z,1.00
2018-08-10T09:52:40.416Z,1.20
2018-08-10T09:55:22.857Z,1.10
2018-08-10T09:57:52.961Z,1.30
2018-08-10T10:00:26.982Z,1.30
2018-08-10T10:03:00.795Z,1.37
2018-08-10T10:05:29.420Z,1.37
2018-08-10T10:07:57.927Z,1.10
2018-08-10T10:10:26.482Z,1.33
2018-08-10T10:12:55.584Z,1.10
2018-08-10T10:15:24.245Z,1.10
2018-08-10T10:17:53.067Z,1.20
2018-08-10T10:20:21.635Z,1.20
2018-08-10T10:22:50.578Z,1.20
2018-08-10T10:25:19.521Z,1.33
2018-08-10T10:27:48.316Z,1.20
2018-08-10T10:30:16.940Z,1.40
2018-08-10T10:32:45.613Z,1.17
2018-08-10T10:35:14.170Z,1.10
2018-08-10T10:37:42.747Z,1.00
2018-08-10T10:40:11.796Z,1.20
2018-08-10T10:42:40.576Z,1.50
2018-08-10T10:45:12.061Z,1.30
2018-08-10T10:47:41.320Z,1.10
2018-08-10T10:50:10.646Z,1.40
2018-08-10T10:52:39.558Z,1.50
2018-08-10T10:55:08.748Z,1.20
2018-08-10T10:57:37.423Z,1.30
2018-08-10T11:00:12.175Z,1.30
2018-08-10T11:02:40.742Z,1.20
2018-08-10T11:05:09.724Z,1.40
2018-08-10T11:07:38.630Z,1.17
2018-08-10T11:10:09.151Z,1.43
2018-08-10T11:12:38.533Z,1.30
2018-08-10T11:15:08.277Z,1.40
2018-08-10T11:17:36.782Z,1.60
2018-08-10T11:20:06.369Z,1.13
2018-08-10T11:22:34.942Z,1.90
2018-08-10T11:25:03.577Z,1.20
2018-08-10T11:27:32.059Z,1.33
2018-08-10T11:30:00.558Z,1.10
2018-08-10T11:32:29.084Z,1.77
2018-08-10T11:34:57.637Z,1.50
2018-08-10T11:37:26.169Z,1.40
2018-08-10T11:39:54.718Z,1.57
2018-08-10T11:42:23.238Z,1.10
2018-08-10T11:44:51.861Z,1.30
2018-08-10T11:47:20.334Z,1.00
2018-08-10T11:49:48.891Z,1.47
2018-08-10T11:52:17.448Z,1.30
2018-08-10T11:54:45.996Z,1.13
2018-08-10T11:57:14.522Z,1.33
2018-08-10T11:59:43.090Z,1.23
2018-08-10T12:02:11.634Z,1.53
2018-08-10T12:04:40.154Z,1.20
2018-08-10T12:07:08.713Z,1.20
2018-08-10T12:09:37.268Z,1.00
2018-08-10T12:12:05.864Z,1.10
2018-08-10T12:14:34.394Z,1.10
2018-08-10T12:17:02.968Z,1.40
2018-08-10T12:19:31.492Z,1.10
2018-08-10T12:22:00.052Z,2.00
2018-08-10T12:24:28.553Z,1.10
2018-08-10T12:26:57.098Z,1.10
2018-08-10T12:29:25.663Z,1.50
2018-08-10T12:31:54.204Z,1.20
2018-08-10T12:34:22.819Z,1.10
2018-08-10T12:36:51.358Z,1.10
2018-08-10T12:39:19.913Z,1.30
2018-08-10T12:41:48.456Z,1.10
2018-08-10T12:44:17.031Z,1.07
2018-08-10T12:46:45.550Z,1.30
2018-08-10T12:49:14.050Z,1.00
2018-08-10T12:51:42.539Z,1.07
2018-08-10T12:54:11.116Z,1.10
2018-08-10T12:56:39.634Z,0.80
2018-08-10T12:59:08.218Z,1.03
2018-08-10T13:01:36.829Z,1.10
2018-08-10T13:04:05.596Z,1.40
2018-08-10T13:06:34.164Z,1.00
2018-08-10T13:09:02.808Z,1.07
2018-08-10T13:11:31.334Z,0.90
2018-08-10T13:13:59.881Z,0.93
2018-08-10T13:16:28.427Z,1.10
2018-08-10T13:18:56.962Z,1.00
2018-08-10T13:21:25.451Z,0.97
2018-08-10T13:23:54.019Z,1.23
2018-08-10T13:26:22.625Z,0.90
2018-08-10T13:28:51.132Z,0.83
2018-08-10T13:31:19.653Z,1.20
2018-08-10T13:33:48.217Z,0.87
2018-08-10T13:36:16.726Z,1.10
2018-08-10T13:38:45.220Z,1.33
2018-08-10T13:41:13.793Z,0.90
2018-08-10T13:43:42.357Z,1.20
2018-08-10T13:46:10.877Z,1.03
2018-08-10T13:48:39.438Z,1.00
2018-08-10T13:51:07.980Z,0.90
2018-08-10T13:53:36.507Z,0.87
2018-08-10T13:56:05.088Z,0.90
2018-08-10T13:58:33.642Z,0.90
2018-08-10T14:01:02.179Z,0.90
2018-08-10T14:03:30.778Z,0.90
2018-08-10T14:05:59.309Z,0.80
2018-08-10T14:11:03.127Z,1.00
2018-08-10T14:13:31.704Z,1.10
2018-08-10T14:16:00.393Z,1.13
2018-08-10T14:18:28.837Z,1.50
2018-08-10T14:20:57.400Z,1.00
2018-08-10T14:23:25.973Z,1.27
2018-08-10T14:25:54.567Z,1.53
2018-08-10T14:28:23.106Z,1.13
2018-08-10T14:30:51.730Z,1.13
2018-08-10T14:33:20.289Z,1.30
2018-08-10T14:35:51.676Z,1.00
2018-08-10T14:38:20.391Z,1.20
2018-08-10T14:40:48.990Z,1.20
2018-08-10T14:43:17.626Z,1.20
2018-08-10T14:45:46.174Z,1.00
2018-08-10T14:48:14.683Z,1.10
2018-08-10T14:50:43.328Z,1.20
2018-08-10T14:53:11.868Z,1.20
2018-08-10T14:55:40.555Z,1.30
2018-08-10T14:58:09.111Z,1.10
2018-08-10T15:00:37.688Z,1.50
2018-08-10T15:03:06.319Z,1.70
2018-08-10T15:05:34.826Z,1.90
2018-08-10T15:08:03.422Z,1.60
2018-08-10T15:10:32.068Z,1.70
2018-08-10T15:13:00.756Z,1.33
2018-08-10T15:15:29.338Z,1.70
2018-08-10T15:17:57.906Z,1.57
2018-08-10T15:20:26.494Z,1.50
2018-08-10T15:22:55.037Z,1.40
2018-08-10T15:25:23.591Z,1.40
2018-08-10T15:27:52.107Z,1.47
2018-08-10T15:30:21.253Z,1.20
2018-08-10T15:32:49.772Z,1.37
2018-08-10T15:35:18.359Z,1.20
2018-08-10T15:37:47.060Z,1.20
2018-08-10T15:40:17.620Z,1.43
2018-08-10T15:42:46.225Z,1.10
2018-08-10T15:45:15.794Z,1.40
2018-08-10T15:47:45.050Z,2.13
2018-08-10T15:50:13.768Z,1.20
2018-08-10T15:52:43.431Z,1.03
2018-08-10T15:55:12.405Z,1.10
2018-08-10T15:57:41.389Z,1.13
2018-08-10T16:00:13.568Z,1.33
2018-08-10T16:02:42.186Z,1.33
2018-08-10T16:05:11.477Z,1.20
2018-08-10T16:07:41.224Z,1.30
2018-08-10T16:10:09.924Z,1.10
2018-08-10T16:12:38.988Z,1.37
2018-08-10T16:15:11.118Z,1.20
2018-08-10T16:17:39.699Z,1.60
2018-08-10T16:20:10.101Z,1.70
2018-08-10T16:22:38.981Z,1.60
2018-08-10T16:25:09.105Z,1.50
2018-08-10T16:27:37.686Z,1.53
2018-08-10T16:30:08.126Z,1.50
2018-08-10T16:32:37.067Z,1.40
2018-08-10T16:35:07.193Z,1.27
2018-08-10T16:37:35.694Z,1.40
2018-08-10T16:40:05.140Z,1.40
2018-08-10T16:42:33.716Z,1.20
2018-08-10T16:45:02.577Z,1.40
2018-08-10T16:47:31.138Z,1.30
2018-08-10T16:49:59.729Z,1.23
2018-08-10T16:52:28.304Z,1.50
2018-08-10T16:54:56.855Z,1.37
2018-08-10T16:57:25.446Z,1.40
2018-08-10T16:59:54.006Z,1.30
2018-08-10T17:02:22.575Z,1.77
2018-08-10T17:04:51.127Z,1.40
2018-08-10T17:07:19.692Z,1.60
2018-08-10T17:09:48.215Z,1.47
2018-08-10T17:12:16.761Z,1.50
2018-08-10T17:14:45.372Z,1.57
2018-08-10T17:17:52.230Z,1.50
2018-08-10T17:20:20.792Z,1.90
2018-08-10T17:22:49.376Z,1.40
2018-08-10T17:25:19.518Z,1.43
2018-08-10T17:27:48.202Z,1.60
2018-08-10T17:30:18.299Z,2.10
2018-08-10T17:32:47.116Z,1.50
2018-08-10T17:35:16.716Z,1.63
2018-08-10T17:37:46.316Z,1.60
2018-08-10T17:40:14.971Z,1.43
2018-08-10T17:42:43.615Z,1.20
2018-08-10T17:45:15.142Z,1.30
2018-08-10T17:47:43.863Z,1.23
2018-08-10T17:50:14.620Z,1.37
2018-08-10T17:52:45.829Z,1.50
2018-08-10T17:55:16.027Z,1.20
2018-08-10T17:57:44.872Z,1.53
2018-08-10T18:00:16.006Z,1.20
2018-08-10T18:02:45.233Z,1.30
2018-08-10T18:05:14.906Z,1.10
2018-08-10T18:07:43.715Z,1.30
2018-08-10T18:10:13.139Z,1.20
2018-08-10T18:12:43.397Z,1.10
2018-08-10T18:15:13.468Z,1.30
2018-08-10T18:17:42.442Z,1.20
2018-08-10T18:20:17.300Z,1.10
2018-08-10T18:22:47.028Z,1.63
2018-08-10T18:25:16.849Z,1.40
2018-08-10T18:27:45.492Z,1.37
2018-08-10T18:30:16.388Z,1.73
2018-08-10T18:32:45.123Z,1.30
2018-08-10T18:35:13.857Z,1.30
2018-08-10T18:37:43.382Z,1.10
2018-08-10T18:40:13.479Z,1.30
2018-08-10T18:42:43.054Z,1.20
2018-08-10T18:45:13.327Z,1.60
2018-08-10T18:47:42.058Z,1.47
2018-08-10T18:50:12.442Z,1.50
2018-08-10T18:52:41.100Z,1.53
2018-08-10T18:55:11.768Z,1.87
2018-08-10T18:57:40.401Z,1.50
2018-08-10T19:00:12.187Z,1.53
2018-08-10T19:02:40.890Z,1.73
2018-08-10T19:05:11.193Z,1.37
2018-08-10T19:07:39.865Z,1.30
2018-08-10T19:10:09.637Z,1.43
2018-08-10T19:12:38.435Z,1.40
2018-08-10T19:15:11.157Z,1.70
2018-08-10T19:17:40.037Z,1.30
2018-08-10T19:20:09.481Z,1.20
2018-08-10T19:22:38.315Z,1.40
2018-08-10T19:25:09.696Z,1.43
2018-08-10T19:27:38.303Z,1.50
2018-08-10T19:30:09.768Z,1.30
2018-08-10T19:32:38.382Z,1.50
2018-08-10T19:35:07.773Z,1.50
2018-08-10T19:37:37.399Z,1.47
2018-08-10T19:40:09.380Z,1.50
2018-08-10T19:42:38.925Z,1.57
2018-08-10T19:45:08.938Z,1.80
2018-08-10T19:47:39.115Z,1.30
2018-08-10T19:50:09.604Z,1.30
2018-08-10T19:52:38.352Z,1.42
2018-08-10T19:55:09.774Z,1.57
2018-08-10T19:57:38.852Z,1.53
2018-08-10T20:00:08.828Z,1.60
2018-08-10T20:02:37.473Z,1.62
2018-08-10T20:05:07.270Z,1.67
2018-08-10T20:07:35.904Z,1.42
2018-08-10T20:10:05.606Z,1.85
2018-08-10T20:12:34.262Z,1.75
2018-08-10T20:15:02.907Z,1.98
2018-08-10T20:17:31.477Z,1.70
2018-08-10T20:20:00.155Z,1.90
2018-08-10T20:22:28.690Z,1.70
2018-08-10T20:24:57.299Z,1.70
2018-08-10T20:27:25.888Z,1.40
2018-08-10T20:29:54.520Z,1.80
2018-08-10T20:32:23.096Z,1.70
2018-08-10T20:34:51.691Z,1.67
2018-08-10T20:37:20.267Z,1.80
2018-08-10T20:39:48.889Z,1.47
2018-08-10T20:42:17.500Z,1.60
2018-08-10T20:44:46.058Z,1.75
2018-08-10T20:47:14.645Z,1.50
2018-08-10T20:49:43.295Z,1.50
2018-08-10T20:52:11.838Z,1.50
2018-08-10T20:54:40.455Z,1.80
2018-08-10T20:57:09.046Z,1.50
2018-08-10T20:59:37.597Z,1.40
2018-08-10T21:02:06.279Z,1.47
2018-08-10T21:04:34.857Z,1.22
2018-08-10T21:07:03.433Z,1.40
2018-08-10T21:09:32.003Z,1.50
2018-08-10T21:12:00.610Z,1.40
2018-08-10T21:14:29.191Z,1.90
2018-08-10T21:16:57.784Z,1.90
2018-08-10T21:19:26.410Z,1.35
2018-08-10T21:21:55.021Z,1.60
2018-08-10T21:24:23.762Z,1.37
2018-08-10T21:26:52.312Z,1.50
2018-08-10T21:29:20.932Z,1.30
2018-08-10T21:31:49.559Z,1.30
2018-08-10T21:34:18.144Z,1.30
2018-08-10T21:36:46.823Z,1.40
2018-08-10T21:39:15.411Z,1.30
2018-08-10T21:41:44.058Z,1.52
2018-08-10T21:44:12.634Z,1.50
2018-08-10T21:46:41.233Z,1.45
2018-08-10T21:49:09.794Z,1.60
2018-08-10T21:51:38.389Z,1.57
2018-08-10T21:54:06.961Z,1.50
2018-08-10T21:56:36.558Z,1.27
2018-08-10T21:59:05.186Z,1.22
2018-08-10T22:01:33.875Z,1.00
2018-08-10T22:04:04.007Z,1.32
2018-08-10T22:06:33.187Z,1.30
2018-08-10T22:09:01.767Z,1.25
2018-08-10T22:11:30.322Z,1.32
2018-08-10T22:14:04.146Z,1.20
2018-08-10T22:16:38.179Z,1.30
2018-08-10T22:19:14.600Z,1.22
2018-08-10T22:21:44.254Z,1.30
2018-08-10T22:24:13.013Z,1.22
2018-08-10T22:26:41.721Z,1.27
2018-08-10T22:29:10.412Z,1.30
2018-08-10T22:31:39.062Z,1.40
2018-08-10T22:34:07.956Z,1.52
2018-08-10T22:36:36.621Z,1.30
2018-08-10T22:39:08.416Z,1.12
2018-08-10T22:41:37.071Z,1.30
2018-08-10T22:44:05.643Z,1.20
2018-08-10T22:46:34.171Z,1.10
2018-08-10T22:49:02.706Z,1.17
2018-08-10T22:51:31.282Z,1.00
2018-08-10T22:53:59.807Z,1.10
2018-08-10T22:56:28.357Z,1.12
2018-08-10T22:58:56.953Z,1.50
2018-08-10T23:01:25.532Z,0.90
2018-08-10T23:03:54.111Z,1.05
2018-08-10T23:06:22.663Z,1.15
2018-08-10T23:08:51.248Z,1.05
2018-08-10T23:11:19.776Z,1.20
2018-08-10T23:13:48.367Z,1.30
2018-08-10T23:16:17.005Z,1.10
2018-08-10T23:18:45.549Z,1.17
2018-08-10T23:21:14.163Z,1.10
2018-08-10T23:23:42.761Z,1.07
2018-08-10T23:26:11.304Z,1.07
2018-08-10T23:28:39.930Z,0.95
2018-08-10T23:31:08.471Z,0.98
2018-08-10T23:33:36.997Z,1.07
2018-08-10T23:36:05.567Z,1.05
2018-08-10T23:38:34.104Z,0.90
2018-08-10T23:41:02.804Z,1.00
2018-08-10T23:43:31.339Z,0.90
2018-08-10T23:45:59.940Z,1.02
2018-08-10T23:48:28.469Z,1.12
2018-08-10T23:50:57.007Z,1.10
2018-08-10T23:53:25.538Z,1.15
2018-08-10T23:55:54.081Z,0.95
2018-08-10T23:58:22.692Z,1.00
